sensor_id;sensor_type;location;lat;lon;timestamp;P1;durP1;ratioP1;P2;durP2;ratioP2
19623;SDS011;9959;49.798;9.928;2023-02-25T00:01:25;21.63;;;10.35;;
19623;SDS011;9959;49.798;9.928;2023-02-25T00:03:54;22.60;;;10.43;;
19623;SDS011;9959;49.798;9.928;2023-02-25T00:06:23;22.67;;;10.80;;
19623;SDS011;9959;49.798;9.928;2023-02-25T00:08:51;21.77;;;10.38;;
19623;SDS011;9959;49.798;9.928;2023-02-25T00:11:18;21.67;;;9.88;;
19623;SDS011;9959;49.798;9.928;2023-02-25T00:13:48;17.65;;;8.85;;
19623;SDS011;9959;49.798;9.928;2023-02-25T00:16:16;19.48;;;8.70;;
19623;SDS011;9959;49.798;9.928;2023-02-25T00:18:43;19.35;;;8.77;;
19623;SDS011;9959;49.798;9.928;2023-02-25T00:21:13;20.40;;;8.50;;
19623;SDS011;9959;49.798;9.928;2023-02-25T00:23:42;22.20;;;10.05;;
19623;SDS011;9959;49.798;9.928;2023-02-25T00:26:15;19.40;;;9.32;;
19623;SDS011;9959;49.798;9.928;2023-02-25T00:28:43;21.70;;;9.60;;
19623;SDS011;9959;49.798;9.928;2023-02-25T00:31:11;22.08;;;9.38;;
19623;SDS011;9959;49.798;9.928;2023-02-25T00:33:41;19.17;;;8.38;;
19623;SDS011;9959;49.798;9.928;2023-02-25T00:36:09;17.45;;;8.10;;
19623;SDS011;9959;49.798;9.928;2023-02-25T00:38:40;20.25;;;9.32;;
19623;SDS011;9959;49.798;9.928;2023-02-25T00:41:08;17.10;;;8.88;;
19623;SDS011;9959;49.798;9.928;2023-02-25T00:43:38;15.90;;;8.38;;
19623;SDS011;9959;49.798;9.928;2023-02-25T00:46:05;17.20;;;7.43;;
19623;SDS011;9959;49.798;9.928;2023-02-25T00:48:32;19.40;;;8.27;;
19623;SDS011;9959;49.798;9.928;2023-02-25T00:51:03;13.05;;;6.80;;
19623;SDS011;9959;49.798;9.928;2023-02-25T00:53:31;15.93;;;8.15;;
19623;SDS011;9959;49.798;9.928;2023-02-25T00:55:58;15.63;;;6.75;;
19623;SDS011;9959;49.798;9.928;2023-02-25T00:58:26;13.75;;;7.43;;
19623;SDS011;9959;49.798;9.928;2023-02-25T01:00:56;12.52;;;7.10;;
19623;SDS011;9959;49.798;9.928;2023-02-25T01:03:23;16.50;;;7.45;;
19623;SDS011;9959;49.798;9.928;2023-02-25T01:05:50;16.15;;;7.15;;
19623;SDS011;9959;49.798;9.928;2023-02-25T01:08:17;13.55;;;5.95;;
19623;SDS011;9959;49.798;9.928;2023-02-25T01:10:47;14.15;;;5.55;;
19623;SDS011;9959;49.798;9.928;2023-02-25T01:13:14;10.23;;;5.35;;
19623;SDS011;9959;49.798;9.928;2023-02-25T01:15:44;12.70;;;5.50;;
19623;SDS011;9959;49.798;9.928;2023-02-25T01:18:11;14.00;;;5.53;;
19623;SDS011;9959;49.798;9.928;2023-02-25T01:20:38;13.43;;;5.10;;
19623;SDS011;9959;49.798;9.928;2023-02-25T01:23:04;10.40;;;5.15;;
19623;SDS011;9959;49.798;9.928;2023-02-25T01:25:32;9.82;;;4.80;;
19623;SDS011;9959;49.798;9.928;2023-02-25T01:27:59;11.88;;;4.15;;
19623;SDS011;9959;49.798;9.928;2023-02-25T01:30:26;16.17;;;5.13;;
19623;SDS011;9959;49.798;9.928;2023-02-25T01:32:53;8.02;;;4.38;;
19623;SDS011;9959;49.798;9.928;2023-02-25T01:35:20;12.20;;;4.35;;
19623;SDS011;9959;49.798;9.928;2023-02-25T01:37:47;10.05;;;3.97;;
19623;SDS011;9959;49.798;9.928;2023-02-25T01:40:15;14.52;;;4.20;;
19623;SDS011;9959;49.798;9.928;2023-02-25T01:42:43;12.70;;;4.15;;
19623;SDS011;9959;49.798;9.928;2023-02-25T01:47:45;7.28;;;3.65;;
19623;SDS011;9959;49.798;9.928;2023-02-25T01:50:17;10.82;;;3.80;;
19623;SDS011;9959;49.798;9.928;2023-02-25T01:52:49;8.85;;;4.20;;
19623;SDS011;9959;49.798;9.928;2023-02-25T01:55:17;12.65;;;3.80;;
19623;SDS011;9959;49.798;9.928;2023-02-25T01:57:44;13.00;;;4.50;;
19623;SDS011;9959;49.798;9.928;2023-02-25T02:00:11;11.63;;;4.68;;
19623;SDS011;9959;49.798;9.928;2023-02-25T02:02:44;13.23;;;4.10;;
19623;SDS011;9959;49.798;9.928;2023-02-25T02:05:15;11.10;;;5.35;;
19623;SDS011;9959;49.798;9.928;2023-02-25T02:07:42;10.20;;;5.30;;
19623;SDS011;9959;49.798;9.928;2023-02-25T02:10:09;14.45;;;5.10;;
19623;SDS011;9959;49.798;9.928;2023-02-25T02:12:38;21.42;;;5.20;;
19623;SDS011;9959;49.798;9.928;2023-02-25T02:15:06;12.00;;;4.43;;
19623;SDS011;9959;49.798;9.928;2023-02-25T02:22:58;9.43;;;4.20;;
19623;SDS011;9959;49.798;9.928;2023-02-25T02:45:21;11.23;;;3.72;;
19623;SDS011;9959;49.798;9.928;2023-02-25T02:47:58;10.95;;;3.58;;
19623;SDS011;9959;49.798;9.928;2023-02-25T02:53:09;9.73;;;3.80;;
19623;SDS011;9959;49.798;9.928;2023-02-25T02:55:40;11.25;;;3.33;;
19623;SDS011;9959;49.798;9.928;2023-02-25T03:00:52;9.70;;;3.20;;
19623;SDS011;9959;49.798;9.928;2023-02-25T03:03:25;10.38;;;3.63;;
19623;SDS011;9959;49.798;9.928;2023-02-25T03:06:03;10.45;;;3.60;;
19623;SDS011;9959;49.798;9.928;2023-02-25T03:08:37;10.60;;;2.65;;
19623;SDS011;9959;49.798;9.928;2023-02-25T03:11:05;9.93;;;3.03;;
19623;SDS011;9959;49.798;9.928;2023-02-25T03:13:35;19.95;;;3.60;;
19623;SDS011;9959;49.798;9.928;2023-02-25T03:16:03;8.75;;;3.13;;
19623;SDS011;9959;49.798;9.928;2023-02-25T03:18:36;9.23;;;3.67;;
19623;SDS011;9959;49.798;9.928;2023-02-25T03:21:12;8.77;;;3.38;;
19623;SDS011;9959;49.798;9.928;2023-02-25T03:23:44;10.77;;;3.50;;
19623;SDS011;9959;49.798;9.928;2023-02-25T03:29:12;10.63;;;3.70;;
19623;SDS011;9959;49.798;9.928;2023-02-25T03:31:54;18.50;;;3.90;;
19623;SDS011;9959;49.798;9.928;2023-02-25T03:34:28;11.10;;;3.60;;
19623;SDS011;9959;49.798;9.928;2023-02-25T03:37:05;9.18;;;2.97;;
19623;SDS011;9959;49.798;9.928;2023-02-25T03:39:41;13.27;;;3.60;;
19623;SDS011;9959;49.798;9.928;2023-02-25T03:42:13;11.20;;;3.42;;
19623;SDS011;9959;49.798;9.928;2023-02-25T03:44:45;11.95;;;3.78;;
19623;SDS011;9959;49.798;9.928;2023-02-25T03:47:17;14.30;;;4.22;;
19623;SDS011;9959;49.798;9.928;2023-02-25T03:52:19;18.67;;;4.05;;
19623;SDS011;9959;49.798;9.928;2023-02-25T03:54:50;12.27;;;3.60;;
19623;SDS011;9959;49.798;9.928;2023-02-25T03:57:18;10.90;;;3.95;;
19623;SDS011;9959;49.798;9.928;2023-02-25T03:59:46;10.13;;;3.95;;
19623;SDS011;9959;49.798;9.928;2023-02-25T04:02:13;12.20;;;4.43;;
19623;SDS011;9959;49.798;9.928;2023-02-25T04:04:41;11.65;;;4.35;;
19623;SDS011;9959;49.798;9.928;2023-02-25T04:07:08;9.45;;;4.20;;
19623;SDS011;9959;49.798;9.928;2023-02-25T04:09:35;17.17;;;4.15;;
19623;SDS011;9959;49.798;9.928;2023-02-25T04:12:01;14.85;;;3.83;;
19623;SDS011;9959;49.798;9.928;2023-02-25T04:14:29;6.95;;;4.15;;
19623;SDS011;9959;49.798;9.928;2023-02-25T04:16:55;13.05;;;4.50;;
19623;SDS011;9959;49.798;9.928;2023-02-25T04:19:22;14.20;;;4.22;;
19623;SDS011;9959;49.798;9.928;2023-02-25T04:21:49;19.10;;;4.57;;
19623;SDS011;9959;49.798;9.928;2023-02-25T04:24:16;16.52;;;4.38;;
19623;SDS011;9959;49.798;9.928;2023-02-25T04:26:43;15.75;;;4.45;;
19623;SDS011;9959;49.798;9.928;2023-02-25T04:29:09;10.05;;;3.88;;
19623;SDS011;9959;49.798;9.928;2023-02-25T04:31:36;9.45;;;4.03;;
19623;SDS011;9959;49.798;9.928;2023-02-25T04:34:03;13.48;;;4.15;;
19623;SDS011;9959;49.798;9.928;2023-02-25T04:36:34;13.27;;;4.43;;
19623;SDS011;9959;49.798;9.928;2023-02-25T04:39:03;11.82;;;4.80;;
19623;SDS011;9959;49.798;9.928;2023-02-25T04:41:31;17.13;;;3.92;;
19623;SDS011;9959;49.798;9.928;2023-02-25T04:44:00;11.52;;;4.30;;
19623;SDS011;9959;49.798;9.928;2023-02-25T04:46:31;17.35;;;4.05;;
19623;SDS011;9959;49.798;9.928;2023-02-25T04:49:02;18.40;;;4.57;;
19623;SDS011;9959;49.798;9.928;2023-02-25T04:51:30;14.45;;;3.90;;
19623;SDS011;9959;49.798;9.928;2023-02-25T04:53:57;15.10;;;4.25;;
19623;SDS011;9959;49.798;9.928;2023-02-25T04:56:24;14.48;;;3.35;;
19623;SDS011;9959;49.798;9.928;2023-02-25T04:58:51;10.05;;;3.03;;
19623;SDS011;9959;49.798;9.928;2023-02-25T05:01:19;16.40;;;3.72;;
19623;SDS011;9959;49.798;9.928;2023-02-25T05:03:46;10.88;;;3.10;;
19623;SDS011;9959;49.798;9.928;2023-02-25T05:06:13;18.45;;;3.90;;
19623;SDS011;9959;49.798;9.928;2023-02-25T05:08:40;16.15;;;3.30;;
19623;SDS011;9959;49.798;9.928;2023-02-25T05:11:07;14.02;;;3.78;;
19623;SDS011;9959;49.798;9.928;2023-02-25T05:13:34;7.47;;;3.25;;
19623;SDS011;9959;49.798;9.928;2023-02-25T05:16:08;15.23;;;3.50;;
19623;SDS011;9959;49.798;9.928;2023-02-25T05:18:38;10.40;;;3.58;;
19623;SDS011;9959;49.798;9.928;2023-02-25T05:21:08;12.85;;;3.60;;
19623;SDS011;9959;49.798;9.928;2023-02-25T05:26:09;14.85;;;3.78;;
19623;SDS011;9959;49.798;9.928;2023-02-25T05:28:36;11.80;;;3.58;;
19623;SDS011;9959;49.798;9.928;2023-02-25T05:31:06;12.93;;;3.75;;
19623;SDS011;9959;49.798;9.928;2023-02-25T05:33:35;15.38;;;3.90;;
19623;SDS011;9959;49.798;9.928;2023-02-25T05:36:06;12.77;;;3.55;;
19623;SDS011;9959;49.798;9.928;2023-02-25T05:38:34;14.98;;;3.97;;
19623;SDS011;9959;49.798;9.928;2023-02-25T05:41:02;13.15;;;3.33;;
19623;SDS011;9959;49.798;9.928;2023-02-25T05:43:31;10.70;;;3.45;;
19623;SDS011;9959;49.798;9.928;2023-02-25T05:45:59;11.85;;;4.97;;
19623;SDS011;9959;49.798;9.928;2023-02-25T05:48:26;15.35;;;4.32;;
19623;SDS011;9959;49.798;9.928;2023-02-25T05:51:01;17.10;;;4.72;;
19623;SDS011;9959;49.798;9.928;2023-02-25T05:53:29;14.35;;;3.88;;
19623;SDS011;9959;49.798;9.928;2023-02-25T05:55:56;16.48;;;3.85;;
19623;SDS011;9959;49.798;9.928;2023-02-25T05:58:24;9.50;;;4.05;;
19623;SDS011;9959;49.798;9.928;2023-02-25T06:00:51;14.43;;;4.13;;
19623;SDS011;9959;49.798;9.928;2023-02-25T06:03:19;12.27;;;3.78;;
19623;SDS011;9959;49.798;9.928;2023-02-25T06:05:47;10.23;;;3.85;;
19623;SDS011;9959;49.798;9.928;2023-02-25T06:08:14;10.40;;;3.95;;
19623;SDS011;9959;49.798;9.928;2023-02-25T06:10:41;8.80;;;3.78;;
19623;SDS011;9959;49.798;9.928;2023-02-25T06:13:08;8.15;;;3.92;;
19623;SDS011;9959;49.798;9.928;2023-02-25T06:15:37;18.92;;;4.70;;
19623;SDS011;9959;49.798;9.928;2023-02-25T06:18:06;14.27;;;4.20;;
19623;SDS011;9959;49.798;9.928;2023-02-25T06:20:33;15.88;;;4.68;;
19623;SDS011;9959;49.798;9.928;2023-02-25T06:23:01;14.57;;;4.57;;
19623;SDS011;9959;49.798;9.928;2023-02-25T06:25:29;20.40;;;3.92;;
19623;SDS011;9959;49.798;9.928;2023-02-25T06:27:57;13.25;;;4.05;;
19623;SDS011;9959;49.798;9.928;2023-02-25T06:30:26;15.57;;;4.80;;
19623;SDS011;9959;49.798;9.928;2023-02-25T06:32:55;24.27;;;4.35;;
19623;SDS011;9959;49.798;9.928;2023-02-25T06:35:22;22.13;;;4.90;;
19623;SDS011;9959;49.798;9.928;2023-02-25T06:37:54;17.33;;;4.95;;
19623;SDS011;9959;49.798;9.928;2023-02-25T06:40:22;13.40;;;4.35;;
19623;SDS011;9959;49.798;9.928;2023-02-25T06:42:49;14.75;;;4.40;;
19623;SDS011;9959;49.798;9.928;2023-02-25T06:45:16;19.08;;;5.03;;
19623;SDS011;9959;49.798;9.928;2023-02-25T06:47:43;18.15;;;4.72;;
19623;SDS011;9959;49.798;9.928;2023-02-25T06:50:10;11.13;;;4.57;;
19623;SDS011;9959;49.798;9.928;2023-02-25T06:52:37;18.13;;;5.25;;
19623;SDS011;9959;49.798;9.928;2023-02-25T06:55:04;9.80;;;4.50;;
19623;SDS011;9959;49.798;9.928;2023-02-25T06:57:32;19.73;;;4.80;;
19623;SDS011;9959;49.798;9.928;2023-02-25T06:59:59;19.20;;;4.90;;
19623;SDS011;9959;49.798;9.928;2023-02-25T07:02:26;17.98;;;5.97;;
19623;SDS011;9959;49.798;9.928;2023-02-25T07:04:53;19.08;;;5.18;;
19623;SDS011;9959;49.798;9.928;2023-02-25T07:08:05;17.23;;;5.30;;
19623;SDS011;9959;49.798;9.928;2023-02-25T07:10:33;16.30;;;6.60;;
19623;SDS011;9959;49.798;9.928;2023-02-25T07:13:00;18.50;;;6.30;;
19623;SDS011;9959;49.798;9.928;2023-02-25T07:15:27;19.45;;;5.20;;
19623;SDS011;9959;49.798;9.928;2023-02-25T07:17:54;15.23;;;5.32;;
19623;SDS011;9959;49.798;9.928;2023-02-25T07:20:21;17.30;;;5.72;;
19623;SDS011;9959;49.798;9.928;2023-02-25T07:22:48;14.50;;;5.32;;
19623;SDS011;9959;49.798;9.928;2023-02-25T07:25:14;22.73;;;6.75;;
19623;SDS011;9959;49.798;9.928;2023-02-25T07:27:42;16.58;;;5.47;;
19623;SDS011;9959;49.798;9.928;2023-02-25T07:30:10;12.63;;;5.07;;
19623;SDS011;9959;49.798;9.928;2023-02-25T07:35:06;17.50;;;5.47;;
19623;SDS011;9959;49.798;9.928;2023-02-25T07:37:34;17.27;;;5.10;;
19623;SDS011;9959;49.798;9.928;2023-02-25T07:40:00;15.57;;;5.25;;
19623;SDS011;9959;49.798;9.928;2023-02-25T07:42:27;15.10;;;4.78;;
19623;SDS011;9959;49.798;9.928;2023-02-25T07:44:55;16.13;;;4.97;;
19623;SDS011;9959;49.798;9.928;2023-02-25T07:47:21;15.35;;;5.75;;
19623;SDS011;9959;49.798;9.928;2023-02-25T07:49:48;17.50;;;5.75;;
19623;SDS011;9959;49.798;9.928;2023-02-25T07:52:21;15.75;;;5.18;;
19623;SDS011;9959;49.798;9.928;2023-02-25T07:54:48;20.17;;;5.32;;
19623;SDS011;9959;49.798;9.928;2023-02-25T07:57:15;16.38;;;4.80;;
19623;SDS011;9959;49.798;9.928;2023-02-25T07:59:41;21.63;;;5.07;;
19623;SDS011;9959;49.798;9.928;2023-02-25T08:02:09;13.90;;;5.05;;
19623;SDS011;9959;49.798;9.928;2023-02-25T08:04:37;9.68;;;4.88;;
19623;SDS011;9959;49.798;9.928;2023-02-25T08:07:03;15.88;;;5.25;;
19623;SDS011;9959;49.798;9.928;2023-02-25T08:09:31;13.38;;;4.70;;
19623;SDS011;9959;49.798;9.928;2023-02-25T08:11:58;13.60;;;4.55;;
19623;SDS011;9959;49.798;9.928;2023-02-25T08:14:25;13.45;;;4.70;;
19623;SDS011;9959;49.798;9.928;2023-02-25T08:16:55;14.55;;;4.03;;
19623;SDS011;9959;49.798;9.928;2023-02-25T08:19:23;13.73;;;3.95;;
19623;SDS011;9959;49.798;9.928;2023-02-25T08:21:49;13.10;;;4.40;;
19623;SDS011;9959;49.798;9.928;2023-02-25T08:24:16;12.32;;;4.47;;
19623;SDS011;9959;49.798;9.928;2023-02-25T08:26:46;14.35;;;4.60;;
19623;SDS011;9959;49.798;9.928;2023-02-25T08:29:13;13.27;;;4.30;;
19623;SDS011;9959;49.798;9.928;2023-02-25T08:31:40;17.77;;;4.75;;
19623;SDS011;9959;49.798;9.928;2023-02-25T08:34:07;18.90;;;4.53;;
19623;SDS011;9959;49.798;9.928;2023-02-25T08:36:34;15.00;;;4.00;;
19623;SDS011;9959;49.798;9.928;2023-02-25T08:39:03;19.58;;;4.85;;
19623;SDS011;9959;49.798;9.928;2023-02-25T08:41:30;9.18;;;3.85;;
19623;SDS011;9959;49.798;9.928;2023-02-25T08:43:58;15.20;;;4.20;;
19623;SDS011;9959;49.798;9.928;2023-02-25T08:46:27;11.88;;;3.72;;
19623;SDS011;9959;49.798;9.928;2023-02-25T08:48:55;11.93;;;4.38;;
19623;SDS011;9959;49.798;9.928;2023-02-25T08:51:24;16.10;;;5.20;;
19623;SDS011;9959;49.798;9.928;2023-02-25T08:54:01;18.20;;;4.93;;
19623;SDS011;9959;49.798;9.928;2023-02-25T08:56:29;15.32;;;4.20;;
19623;SDS011;9959;49.798;9.928;2023-02-25T08:58:56;16.02;;;4.20;;
19623;SDS011;9959;49.798;9.928;2023-02-25T09:01:23;13.40;;;4.22;;
19623;SDS011;9959;49.798;9.928;2023-02-25T09:03:51;12.82;;;3.53;;
19623;SDS011;9959;49.798;9.928;2023-02-25T09:06:19;11.15;;;4.47;;
19623;SDS011;9959;49.798;9.928;2023-02-25T09:08:50;18.27;;;4.70;;
19623;SDS011;9959;49.798;9.928;2023-02-25T09:11:18;17.55;;;5.10;;
19623;SDS011;9959;49.798;9.928;2023-02-25T09:13:46;21.15;;;4.47;;
19623;SDS011;9959;49.798;9.928;2023-02-25T09:16:15;14.73;;;4.50;;
19623;SDS011;9959;49.798;9.928;2023-02-25T09:18:46;13.25;;;4.40;;
19623;SDS011;9959;49.798;9.928;2023-02-25T09:21:14;13.93;;;4.55;;
19623;SDS011;9959;49.798;9.928;2023-02-25T09:23:42;11.38;;;3.95;;
19623;SDS011;9959;49.798;9.928;2023-02-25T09:26:09;13.50;;;4.15;;
19623;SDS011;9959;49.798;9.928;2023-02-25T09:28:36;17.58;;;4.47;;
19623;SDS011;9959;49.798;9.928;2023-02-25T09:31:03;14.55;;;5.30;;
19623;SDS011;9959;49.798;9.928;2023-02-25T09:33:31;14.30;;;4.68;;
19623;SDS011;9959;49.798;9.928;2023-02-25T09:36:18;8.70;;;3.90;;
19623;SDS011;9959;49.798;9.928;2023-02-25T09:38:47;12.75;;;3.97;;
19623;SDS011;9959;49.798;9.928;2023-02-25T09:46:56;15.60;;;5.00;;
19623;SDS011;9959;49.798;9.928;2023-02-25T09:49:35;13.30;;;4.30;;
19623;SDS011;9959;49.798;9.928;2023-02-25T09:52:17;15.30;;;5.03;;
19623;SDS011;9959;49.798;9.928;2023-02-25T09:55:10;10.57;;;4.47;;
19623;SDS011;9959;49.798;9.928;2023-02-25T09:57:43;15.37;;;4.60;;
19623;SDS011;9959;49.798;9.928;2023-02-25T10:00:28;16.45;;;4.50;;
19623;SDS011;9959;49.798;9.928;2023-02-25T10:06:08;9.50;;;4.05;;
19623;SDS011;9959;49.798;9.928;2023-02-25T10:22:06;10.90;;;5.05;;
19623;SDS011;9959;49.798;9.928;2023-02-25T10:24:46;12.15;;;4.60;;
19623;SDS011;9959;49.798;9.928;2023-02-25T10:27:20;16.15;;;5.13;;
19623;SDS011;9959;49.798;9.928;2023-02-25T10:29:52;14.95;;;3.88;;
19623;SDS011;9959;49.798;9.928;2023-02-25T10:32:26;9.43;;;4.30;;
19623;SDS011;9959;49.798;9.928;2023-02-25T10:34:59;13.63;;;4.13;;
19623;SDS011;9959;49.798;9.928;2023-02-25T10:37:30;11.90;;;4.78;;
19623;SDS011;9959;49.798;9.928;2023-02-25T10:39:59;14.80;;;4.40;;
19623;SDS011;9959;49.798;9.928;2023-02-25T10:42:29;14.18;;;4.70;;
19623;SDS011;9959;49.798;9.928;2023-02-25T10:44:59;13.90;;;4.50;;
19623;SDS011;9959;49.798;9.928;2023-02-25T10:47:34;14.63;;;5.10;;
19623;SDS011;9959;49.798;9.928;2023-02-25T10:50:17;13.32;;;5.05;;
19623;SDS011;9959;49.798;9.928;2023-02-25T10:52:54;13.52;;;5.50;;
19623;SDS011;9959;49.798;9.928;2023-02-25T10:57:59;15.77;;;5.35;;
19623;SDS011;9959;49.798;9.928;2023-02-25T11:00:27;10.93;;;5.15;;
19623;SDS011;9959;49.798;9.928;2023-02-25T11:02:58;11.48;;;4.00;;
19623;SDS011;9959;49.798;9.928;2023-02-25T11:05:34;13.52;;;4.47;;
19623;SDS011;9959;49.798;9.928;2023-02-25T11:08:24;13.45;;;4.32;;
19623;SDS011;9959;49.798;9.928;2023-02-25T11:13:52;11.43;;;4.22;;
19623;SDS011;9959;49.798;9.928;2023-02-25T11:16:27;13.38;;;4.20;;
19623;SDS011;9959;49.798;9.928;2023-02-25T11:18:57;9.52;;;3.33;;
19623;SDS011;9959;49.798;9.928;2023-02-25T11:21:27;9.88;;;3.20;;
19623;SDS011;9959;49.798;9.928;2023-02-25T11:24:04;10.98;;;3.47;;
19623;SDS011;9959;49.798;9.928;2023-02-25T11:26:40;7.50;;;3.80;;
19623;SDS011;9959;49.798;9.928;2023-02-25T11:29:08;9.48;;;3.70;;
19623;SDS011;9959;49.798;9.928;2023-02-25T11:31:47;13.48;;;3.90;;
19623;SDS011;9959;49.798;9.928;2023-02-25T11:34:28;12.82;;;4.32;;
19623;SDS011;9959;49.798;9.928;2023-02-25T11:37:21;16.63;;;4.80;;
19623;SDS011;9959;49.798;9.928;2023-02-25T11:39:59;16.38;;;4.53;;
19623;SDS011;9959;49.798;9.928;2023-02-25T11:42:27;9.80;;;4.38;;
19623;SDS011;9959;49.798;9.928;2023-02-25T11:45:02;10.90;;;4.25;;
19623;SDS011;9959;49.798;9.928;2023-02-25T11:47:30;10.82;;;4.05;;
19623;SDS011;9959;49.798;9.928;2023-02-25T12:00:44;9.55;;;4.07;;
19623;SDS011;9959;49.798;9.928;2023-02-25T12:06:03;10.55;;;3.88;;
19623;SDS011;9959;49.798;9.928;2023-02-25T12:12:20;8.50;;;3.30;;
19623;SDS011;9959;49.798;9.928;2023-02-25T12:18:03;6.88;;;3.00;;
19623;SDS011;9959;49.798;9.928;2023-02-25T12:31:07;7.82;;;3.97;;
19623;SDS011;9959;49.798;9.928;2023-02-25T12:41:36;7.28;;;3.65;;
19623;SDS011;9959;49.798;9.928;2023-02-25T12:47:05;10.18;;;4.00;;
19623;SDS011;9959;49.798;9.928;2023-02-25T13:03:26;4.57;;;2.10;;
19623;SDS011;9959;49.798;9.928;2023-02-25T13:15:27;4.60;;;1.92;;
19623;SDS011;9959;49.798;9.928;2023-02-25T13:18:14;3.97;;;1.73;;
19623;SDS011;9959;49.798;9.928;2023-02-25T13:29:12;1.95;;;1.42;;
19623;SDS011;9959;49.798;9.928;2023-02-25T13:43:11;5.57;;;2.38;;
19623;SDS011;9959;49.798;9.928;2023-02-25T14:10:50;3.28;;;1.50;;
19623;SDS011;9959;49.798;9.928;2023-02-25T14:13:25;2.53;;;1.50;;
19623;SDS011;9959;49.798;9.928;2023-02-25T14:26:31;3.42;;;1.88;;
19623;SDS011;9959;49.798;9.928;2023-02-25T14:32:09;6.05;;;2.33;;
19623;SDS011;9959;49.798;9.928;2023-02-25T14:37:28;5.80;;;1.70;;
19623;SDS011;9959;49.798;9.928;2023-02-25T14:47:38;5.50;;;1.90;;
19623;SDS011;9959;49.798;9.928;2023-02-25T14:50:09;3.75;;;1.85;;
19623;SDS011;9959;49.798;9.928;2023-02-25T14:55:42;5.35;;;1.88;;
19623;SDS011;9959;49.798;9.928;2023-02-25T14:58:11;3.03;;;1.80;;
19623;SDS011;9959;49.798;9.928;2023-02-25T15:01:10;3.67;;;1.90;;
19623;SDS011;9959;49.798;9.928;2023-02-25T15:20:25;7.95;;;2.28;;
19623;SDS011;9959;49.798;9.928;2023-02-25T15:23:07;7.53;;;3.00;;
19623;SDS011;9959;49.798;9.928;2023-02-25T15:25:43;5.47;;;2.35;;
19623;SDS011;9959;49.798;9.928;2023-02-25T15:46:37;8.82;;;2.28;;
19623;SDS011;9959;49.798;9.928;2023-02-25T15:51:40;7.38;;;2.35;;
19623;SDS011;9959;49.798;9.928;2023-02-25T15:54:06;7.70;;;2.20;;
19623;SDS011;9959;49.798;9.928;2023-02-25T15:59:06;5.07;;;2.15;;
19623;SDS011;9959;49.798;9.928;2023-02-25T16:01:37;4.45;;;2.03;;
19623;SDS011;9959;49.798;9.928;2023-02-25T16:04:11;6.53;;;2.20;;
19623;SDS011;9959;49.798;9.928;2023-02-25T16:07:07;5.80;;;2.08;;
19623;SDS011;9959;49.798;9.928;2023-02-25T16:09:40;4.55;;;1.60;;
19623;SDS011;9959;49.798;9.928;2023-02-25T16:12:14;6.32;;;1.75;;
19623;SDS011;9959;49.798;9.928;2023-02-25T16:14:42;3.97;;;1.65;;
19623;SDS011;9959;49.798;9.928;2023-02-25T16:17:14;10.70;;;2.22;;
19623;SDS011;9959;49.798;9.928;2023-02-25T16:19:46;6.32;;;1.60;;
19623;SDS011;9959;49.798;9.928;2023-02-25T16:22:20;5.47;;;1.58;;
19623;SDS011;9959;49.798;9.928;2023-02-25T16:24:53;6.55;;;1.80;;
19623;SDS011;9959;49.798;9.928;2023-02-25T16:30:09;7.15;;;1.65;;
19623;SDS011;9959;49.798;9.928;2023-02-25T16:32:58;3.75;;;1.40;;
19623;SDS011;9959;49.798;9.928;2023-02-25T16:38:54;5.05;;;1.85;;
19623;SDS011;9959;49.798;9.928;2023-02-25T16:44:06;7.28;;;1.80;;
19623;SDS011;9959;49.798;9.928;2023-02-25T16:46:36;3.55;;;1.30;;
19623;SDS011;9959;49.798;9.928;2023-02-25T16:49:07;5.28;;;1.95;;
19623;SDS011;9959;49.798;9.928;2023-02-25T16:51:43;3.17;;;1.50;;
19623;SDS011;9959;49.798;9.928;2023-02-25T16:54:18;5.00;;;1.52;;
19623;SDS011;9959;49.798;9.928;2023-02-25T16:56:50;4.72;;;1.88;;
19623;SDS011;9959;49.798;9.928;2023-02-25T16:59:21;6.43;;;1.90;;
19623;SDS011;9959;49.798;9.928;2023-02-25T17:04:28;3.58;;;1.80;;
19623;SDS011;9959;49.798;9.928;2023-02-25T17:09:48;4.22;;;1.60;;
19623;SDS011;9959;49.798;9.928;2023-02-25T17:12:31;3.15;;;1.73;;
19623;SDS011;9959;49.798;9.928;2023-02-25T17:15:06;3.97;;;2.00;;
19623;SDS011;9959;49.798;9.928;2023-02-25T17:17:39;4.00;;;1.80;;
19623;SDS011;9959;49.798;9.928;2023-02-25T17:20:27;6.60;;;2.35;;
19623;SDS011;9959;49.798;9.928;2023-02-25T17:22:55;6.55;;;1.92;;
19623;SDS011;9959;49.798;9.928;2023-02-25T17:25:31;2.60;;;1.90;;
19623;SDS011;9959;49.798;9.928;2023-02-25T17:28:02;6.57;;;2.35;;
19623;SDS011;9959;49.798;9.928;2023-02-25T17:30:36;4.72;;;2.05;;
19623;SDS011;9959;49.798;9.928;2023-02-25T17:33:16;2.00;;;1.50;;
19623;SDS011;9959;49.798;9.928;2023-02-25T17:35:55;8.02;;;1.73;;
19623;SDS011;9959;49.798;9.928;2023-02-25T17:38:35;6.65;;;2.10;;
19623;SDS011;9959;49.798;9.928;2023-02-25T17:41:03;3.92;;;2.10;;
19623;SDS011;9959;49.798;9.928;2023-02-25T17:43:37;3.78;;;1.90;;
19623;SDS011;9959;49.798;9.928;2023-02-25T17:46:14;7.10;;;2.05;;
19623;SDS011;9959;49.798;9.928;2023-02-25T17:49:01;4.38;;;1.95;;
19623;SDS011;9959;49.798;9.928;2023-02-25T17:51:33;5.88;;;1.77;;
19623;SDS011;9959;49.798;9.928;2023-02-25T17:54:06;6.22;;;2.25;;
19623;SDS011;9959;49.798;9.928;2023-02-25T17:56:52;1.67;;;1.52;;
19623;SDS011;9959;49.798;9.928;2023-02-25T17:59:34;5.68;;;1.55;;
19623;SDS011;9959;49.798;9.928;2023-02-25T18:05:12;2.60;;;1.80;;
19623;SDS011;9959;49.798;9.928;2023-02-25T18:12:59;4.10;;;2.20;;
19623;SDS011;9959;49.798;9.928;2023-02-25T18:15:29;4.15;;;1.92;;
19623;SDS011;9959;49.798;9.928;2023-02-25T18:18:02;8.75;;;2.38;;
19623;SDS011;9959;49.798;9.928;2023-02-25T18:25:42;6.03;;;2.70;;
19623;SDS011;9959;49.798;9.928;2023-02-25T18:28:12;3.25;;;1.92;;
19623;SDS011;9959;49.798;9.928;2023-02-25T18:30:42;3.85;;;2.13;;
19623;SDS011;9959;49.798;9.928;2023-02-25T18:33:10;7.32;;;2.70;;
19623;SDS011;9959;49.798;9.928;2023-02-25T18:35:37;5.90;;;2.47;;
19623;SDS011;9959;49.798;9.928;2023-02-25T18:38:06;4.00;;;2.15;;
19623;SDS011;9959;49.798;9.928;2023-02-25T18:40:42;8.57;;;2.20;;
19623;SDS011;9959;49.798;9.928;2023-02-25T18:43:13;4.88;;;2.20;;
19623;SDS011;9959;49.798;9.928;2023-02-25T18:45:45;5.50;;;2.38;;
19623;SDS011;9959;49.798;9.928;2023-02-25T18:48:12;2.55;;;1.60;;
19623;SDS011;9959;49.798;9.928;2023-02-25T18:50:39;4.68;;;2.08;;
19623;SDS011;9959;49.798;9.928;2023-02-25T18:53:12;4.13;;;2.00;;
19623;SDS011;9959;49.798;9.928;2023-02-25T18:55:42;7.70;;;2.13;;
19623;SDS011;9959;49.798;9.928;2023-02-25T18:58:12;4.70;;;1.83;;
19623;SDS011;9959;49.798;9.928;2023-02-25T19:00:41;11.07;;;2.75;;
19623;SDS011;9959;49.798;9.928;2023-02-25T19:03:10;5.30;;;2.25;;
19623;SDS011;9959;49.798;9.928;2023-02-25T19:05:41;5.47;;;2.30;;
19623;SDS011;9959;49.798;9.928;2023-02-25T19:08:11;3.10;;;1.73;;
19623;SDS011;9959;49.798;9.928;2023-02-25T19:10:40;3.00;;;1.65;;
19623;SDS011;9959;49.798;9.928;2023-02-25T19:15:41;4.20;;;1.58;;
19623;SDS011;9959;49.798;9.928;2023-02-25T19:18:11;4.05;;;1.73;;
19623;SDS011;9959;49.798;9.928;2023-02-25T19:20:40;3.42;;;1.50;;
19623;SDS011;9959;49.798;9.928;2023-02-25T19:23:10;4.13;;;1.75;;
19623;SDS011;9959;49.798;9.928;2023-02-25T19:25:39;3.75;;;1.90;;
19623;SDS011;9959;49.798;9.928;2023-02-25T19:28:07;2.60;;;1.75;;
19623;SDS011;9959;49.798;9.928;2023-02-25T19:30:35;2.97;;;1.45;;
19623;SDS011;9959;49.798;9.928;2023-02-25T19:33:07;3.90;;;1.10;;
19623;SDS011;9959;49.798;9.928;2023-02-25T19:35:36;4.82;;;1.10;;
19623;SDS011;9959;49.798;9.928;2023-02-25T19:38:04;2.55;;;1.10;;
19623;SDS011;9959;49.798;9.928;2023-02-25T19:40:34;3.15;;;1.15;;
19623;SDS011;9959;49.798;9.928;2023-02-25T19:43:01;1.52;;;1.08;;
19623;SDS011;9959;49.798;9.928;2023-02-25T19:45:30;2.45;;;1.30;;
19623;SDS011;9959;49.798;9.928;2023-02-25T19:47:57;1.38;;;1.27;;
19623;SDS011;9959;49.798;9.928;2023-02-25T19:50:25;4.18;;;1.10;;
19623;SDS011;9959;49.798;9.928;2023-02-25T19:52:53;3.80;;;1.00;;